Aeroporto :
LOGIN :

Iscrizione | Disclaimer

   EN    FR    IT 

 










Sommario :    VFR   VFR Marginale   IFR   IFR Intensivo   IFR Molto Intensivo
Visibilità : 
Base nubi : 
>= 8 km
>= 3000ft
5 / 8 km
1000 / 3000 ft
1500m / 5 km
500 / 1000 ft
800 / 1500m
200 / 500 ft
< 800m
< 200 ft
Simboli :   Temporali  Nebbia  Neve Forte  Precipitazioni Forti  Vento > 20 kt
SIGMETs :   Varie  Temporali  Ghiacco  Turbolenza  Onda orograficha  Ceneri Vulcaniche






- Altitudine del aeroporto : 637 ft
- Codice IATA : MVQ


UMOO - Mogilev

ULTIMO METAR :
  • 040730Z 13006G09MPS 5000 BR OVC006 M02/M03 Q1025 R13/790123 NOSIG RMK QBB180

METARs OBSOLETI :
  • 040700Z 14005G08MPS 6000 OVC007 M02/M03 Q1025 R13/790123 NOSIG
  • 040630Z 13006MPS 6000 OVC007 M02/M04 Q1024 R13/790123 NOSIG
  • 040600Z 14005G08MPS 6000 DRSN OVC007 M02/M04 Q1024 R13/790123 NOSIG
  • 040530Z 13006G09MPS 5000 DRSN BR BKN006 OVC016CB M02/M03 Q1024 R13/790123 TEMPO 2100 -FZDZ BKN003 RMK QBB190
  • 040500Z 13007G10MPS 4800 -SHSN DRSN BR BKN006 OVC024CB M02/M03 Q1024 R13/790123 TEMPO 2100 -FZDZ BKN003 RMK QBB180

TAF TAF UMOO
Valido dal 04 a 05 ore il 04 a 15 ore UTC


040452Z 0405/0415 13005G10MPS 5000 BR OVC005
TEMPO 0405/0415 17007G12MPS 1200 -FZDZ -SHSN BLSN BKN003 BKN012CB



MetMap, La meteo Aeronautica in un colpo d'occhio ! - Copyright ORBIFLY Dicembre 2007 - Disclaimer

ORBIFLY MET'MAP TEAM :

Programmazione e sviluppo : Alexandra Zaïnal
Concezione : Baudouin d'Aumeries
Aiuto per la programmazione : Marc-Olivier Méhu
Supporto tecnico e logistico : Manuel Goepfert
Aiuto per la traduzione : Arnaldo La Scala

Contatto : metmap@orbifly.com




FONTI E CREDITI :

   NOAA